Time;durP1;ratioP1;P1;durP2;ratioP2;P2;SDS_P1;SDS_P2;PMS_P1;PMS_P2;Temp;Humidity;BMP_temperature;BMP_pressure;BME280_temperature;BME280_humidity;BME280_pressure;Samples;Min_cycle;Max_cycle;Signal;HPM_P1;HPM_P2
2023/07/21 00:01:36;;;;;;;3.07;2.87;;;;;;;-145.68;100.00;73645.72;10331217;28;20261;-69
2023/07/21 00:06:36;;;;;;;3.00;2.80;;;;;;;-145.68;100.00;73655.69;10331092;28;20695;-69
2023/07/21 00:11:38;;;;;;;4.97;2.97;;;;;;;-145.68;100.00;73645.72;10330382;28;20240;-69
2023/07/21 00:16:38;;;;;;;2.88;2.63;;;;;;;-145.68;100.00;73637.72;10330592;28;20252;-69
2023/07/21 00:21:39;;;;;;;3.90;2.42;;;;;;;-145.68;100.00;73629.72;10330337;28;20204;-69
2023/07/21 00:26:39;;;;;;;2.70;2.50;;;;;;;-145.68;100.00;73621.72;10330227;28;20284;-69
2023/07/21 00:31:46;;;;;;;3.08;2.50;;;;;;;-145.68;100.00;73617.72;10330429;28;20541;-69
2023/07/21 00:36:46;;;;;;;2.53;2.33;;;;;;;-145.68;100.00;73625.72;10312428;28;20264;-69
2023/07/21 00:41:47;;;;;;;2.83;2.45;;;;;;;-145.68;100.00;73617.72;10330282;28;20265;-69
2023/07/21 00:46:49;;;;;;;3.10;2.30;;;;;;;-145.68;100.00;73619.72;10329730;28;20214;-68
2023/07/21 00:51:49;;;;;;;2.90;2.53;;;;;;;-145.68;100.00;73619.72;10312857;28;20186;-68
2023/07/21 00:56:50;;;;;;;4.40;2.23;;;;;;;-145.68;100.00;73617.72;10329719;28;20218;-68
2023/07/21 01:01:50;;;;;;;2.88;2.40;;;;;;;-145.68;100.00;73635.72;10329113;28;20696;-68
2023/07/21 01:06:51;;;;;;;4.23;2.60;;;;;;;-145.68;100.00;73629.72;10329463;28;20225;-68
2023/07/21 01:11:52;;;;;;;2.58;2.38;;;;;;;-145.68;100.00;73623.72;10295709;28;20220;-68
2023/07/21 01:16:52;;;;;;;5.00;2.47;;;;;;;-145.68;100.00;73635.72;10328518;28;20288;-68
2023/07/21 01:22:16;;;;;;;5.60;2.20;;;;;;;-145.68;100.00;73643.72;10332844;28;20273;-68
2023/07/21 01:27:22;;;;;;;3.30;2.60;;;;;;;-145.68;100.00;73661.69;10319552;28;20673;-68
2023/07/21 01:32:26;;;;;;;2.33;2.13;;;;;;;-145.68;100.00;73663.69;10319339;28;20278;-67
2023/07/21 01:37:26;;;;;;;7.60;2.60;;;;;;;-145.68;100.00;73673.69;10319253;28;20245;-67
2023/07/21 01:42:29;;;;;;;3.23;2.73;;;;;;;-145.68;100.00;73697.69;10319254;28;20747;-67
2023/07/21 01:47:32;;;;;;;3.10;2.60;;;;;;;-145.68;100.00;73699.69;10335962;28;20225;-67
2023/07/21 01:52:34;;;;;;;2.23;2.03;;;;;;;-145.68;100.00;73709.69;10336007;28;20267;-67
2023/07/21 01:57:37;;;;;;;2.70;2.50;;;;;;;-145.68;100.00;73725.66;10335816;28;20723;-67
2023/07/21 02:02:40;;;;;;;2.77;2.57;;;;;;;-145.68;100.00;73731.66;10302235;28;20718;-67
2023/07/21 02:07:40;;;;;;;3.00;2.77;;;;;;;-145.68;100.00;73739.66;10335824;28;20225;-68
2023/07/21 02:12:40;;;;;;;2.93;2.73;;;;;;;-145.68;100.00;73755.66;10335096;28;20198;-67
2023/07/21 02:17:47;;;;;;;3.00;2.70;;;;;;;-145.68;100.00;73771.63;10317983;28;20186;-67
2023/07/21 02:22:47;;;;;;;2.90;2.30;;;;;;;-145.68;100.00;73777.63;10317449;28;20202;-68
2023/07/21 02:27:47;;;;;;;2.53;2.33;;;;;;;-145.68;100.00;73783.63;10334769;28;20210;-68
2023/07/21 02:32:48;;;;;;;3.60;2.20;;;;;;;-145.68;100.00;73785.63;10333513;28;20193;-68
2023/07/21 02:37:49;;;;;;;4.33;2.70;;;;;;;-145.68;100.00;73793.63;10334453;28;20309;-68
2023/07/21 02:42:50;;;;;;;2.97;2.73;;;;;;;-145.68;100.00;73797.63;10316967;28;20619;-68
2023/07/21 02:47:51;;;;;;;2.67;2.47;;;;;;;-145.68;100.00;73807.63;10316480;28;20608;-68
2023/07/21 02:52:51;;;;;;;3.20;2.10;;;;;;;-145.68;100.00;73807.63;10316428;28;20209;-68
2023/07/21 02:57:52;;;;;;;2.70;2.50;;;;;;;-145.68;100.00;73807.63;10316343;28;20247;-68
2023/07/21 03:02:57;;;;;;;2.53;2.33;;;;;;;-145.68;100.00;73819.63;10323651;28;20189;-68
2023/07/21 03:07:59;;;;;;;2.43;2.23;;;;;;;-145.68;100.00;73827.59;10356013;28;20193;-68
2023/07/21 03:12:59;;;;;;;4.27;2.37;;;;;;;-145.68;100.00;73837.59;10354559;28;20748;-68
2023/07/21 03:18:02;;;;;;;2.63;2.40;;;;;;;-145.68;100.00;73849.59;10355554;28;20189;-68
2023/07/21 03:23:08;;;;;;;2.50;2.30;;;;;;;-145.68;100.00;73843.59;10355351;28;20209;-68
2023/07/21 03:28:09;;;;;;;2.47;2.27;;;;;;;-145.68;100.00;73835.59;10355393;28;20274;-68
2023/07/21 03:33:14;;;;;;;2.50;2.30;;;;;;;-145.68;100.00;73845.59;10355047;28;20205;-68
2023/07/21 03:38:16;;;;;;;2.57;2.37;;;;;;;-145.68;100.00;73853.59;10355059;28;20567;-68
2023/07/21 03:43:16;;;;;;;2.03;1.93;;;;;;;-145.68;100.00;73843.59;10354321;28;20725;-68
2023/07/21 03:48:17;;;;;;;2.20;2.10;;;;;;;-145.68;100.00;73853.59;10372399;28;20189;-68
2023/07/21 03:53:18;;;;;;;2.70;2.40;;;;;;;-145.68;100.00;73851.59;10354438;28;20228;-68
2023/07/21 03:58:19;;;;;;;3.33;2.17;;;;;;;-145.68;100.00;73839.59;10372090;28;20191;-67
2023/07/21 04:03:19;;;;;;;2.37;2.17;;;;;;;-145.68;100.00;73833.59;10353765;28;20695;-68
2023/07/21 04:08:20;;;;;;;2.50;2.30;;;;;;;-145.68;100.00;73833.59;10354160;28;20272;-67
2023/07/21 04:13:20;;;;;;;2.40;2.20;;;;;;;-145.68;100.00;73823.63;10371121;28;20229;-67
2023/07/21 04:18:20;;;;;;;3.77;2.27;;;;;;;-145.68;100.00;73809.63;10371297;28;20287;-68
2023/07/21 04:23:21;;;;;;;3.23;2.30;;;;;;;-145.68;100.00;73797.63;10371150;28;20209;-68
2023/07/21 04:28:23;;;;;;;4.40;2.30;;;;;;;-145.68;100.00;73765.66;10353390;28;20272;-68
2023/07/21 04:33:24;;;;;;;4.00;2.10;;;;;;;-145.68;100.00;73747.66;10353275;28;20201;-68
2023/07/21 04:38:25;;;;;;;2.33;2.13;;;;;;;-145.68;100.00;73733.66;10353142;28;20194;-69
2023/07/21 04:43:36;;;;;;;2.20;2.07;;;;;;;-145.68;100.00;73689.69;10353010;28;20228;-68
2023/07/21 04:48:37;;;;;;;2.07;1.77;;;;;;;-145.68;100.00;73643.72;10352698;28;20211;-68
2023/07/21 04:53:38;;;;;;;1.90;1.70;;;;;;;-145.68;96.13;73611.72;10352918;28;20590;-68
2023/07/21 04:58:38;;;;;;;2.33;2.13;;;;;;;-145.68;94.00;73585.75;10377075;28;20185;-69
2023/07/21 05:03:41;;;;;;;5.53;2.13;;;;;;;-145.68;92.61;73563.75;10360848;28;20240;-69
2023/07/21 05:08:41;;;;;;;3.67;1.80;;;;;;;-145.68;89.70;73545.78;10360904;28;20195;-69
2023/07/21 05:13:45;;;;;;;1.80;1.70;;;;;;;-145.68;88.72;73547.75;10386021;23;20339;-64
2023/07/21 05:18:58;;;;;;;3.35;1.90;;;;;;;-145.68;88.08;73503.78;10416453;28;20577;-65
2023/07/21 05:24:18;;;;;;;1.60;1.50;;;;;;;-145.68;84.78;73455.81;10418336;28;20260;-64
2023/07/21 05:29:19;;;;;;;3.25;1.65;;;;;;;-145.68;82.88;73403.84;10401016;28;20195;-65
2023/07/21 05:34:21;;;;;;;6.05;2.08;;;;;;;-145.68;80.43;73377.88;10399620;28;20193;-64
2023/07/21 05:39:22;;;;;;;4.13;1.40;;;;;;;-145.68;79.47;73369.88;10407812;28;20272;-64
2023/07/21 05:44:22;;;;;;;1.50;1.40;;;;;;;-145.68;79.21;73351.88;10416618;28;20310;-66
2023/07/21 05:49:23;;;;;;;2.65;1.50;;;;;;;-145.68;77.66;73315.91;10416515;28;20279;-65
2023/07/21 05:54:24;;;;;;;1.45;1.35;;;;;;;-145.68;76.63;73281.94;10416552;28;20212;-65
2023/07/21 05:59:25;;;;;;;3.95;1.55;;;;;;;-145.68;75.57;73259.94;10416458;28;20249;-64
2023/07/21 06:04:26;;;;;;;2.70;1.52;;;;;;;-145.68;75.26;73263.94;10415324;28;20299;-65
2023/07/21 06:09:44;;;;;;;2.50;1.60;;;;;;;-145.68;75.34;73217.97;10416256;28;20258;-65
2023/07/21 06:15:11;;;;;;;2.85;1.63;;;;;;;-145.68;75.28;73180.00;10412580;28;20229;-64
2023/07/21 06:20:24;;;;;;;1.75;1.65;;;;;;;-145.68;73.92;73142.03;10397385;28;20184;-65
2023/07/21 06:25:25;;;;;;;1.58;1.48;;;;;;;-145.68;72.06;73106.06;10398066;28;20733;-65
2023/07/21 06:30:33;;;;;;;7.07;1.50;;;;;;;-145.68;70.73;73066.09;10398439;28;20203;-65
2023/07/21 06:35:34;;;;;;;1.63;1.40;;;;;;;-145.68;69.95;73050.09;10415263;28;20208;-65
2023/07/21 06:40:51;;;;;;;1.52;1.40;;;;;;;-145.68;69.84;73020.13;10396508;28;20279;-64
2023/07/21 06:46:17;;;;;;;2.03;1.42;;;;;;;-145.68;69.35;73000.13;10410388;28;20224;-65
2023/07/21 06:51:40;;;;;;;1.58;1.42;;;;;;;-145.68;68.32;72978.16;10395955;28;20196;-66
2023/07/21 06:56:41;;;;;;;1.25;1.17;;;;;;;-145.68;64.03;72920.19;10413035;28;20208;-65
2023/07/21 07:01:42;;;;;;;1.30;1.20;;;;;;;-145.68;63.37;72912.19;10413256;28;20193;-65
2023/07/21 07:06:42;;;;;;;1.48;1.30;;;;;;;-145.68;64.20;72906.19;10413143;28;20220;-66
2023/07/21 07:11:43;;;;;;;2.30;1.20;;;;;;;-145.68;62.03;72848.25;10413122;28;20184;-66
2023/07/21 07:16:46;;;;;;;3.88;1.10;;;;;;;-145.68;59.63;72794.28;10410318;28;20355;-66
2023/07/21 07:21:47;;;;;;;1.50;1.40;;;;;;;-145.68;58.56;72762.31;10393224;28;20193;-66
2023/07/21 07:26:47;;;;;;;1.30;1.20;;;;;;;-145.68;58.15;72708.34;10412524;28;20232;-66
2023/07/21 07:31:49;;;;;;;1.95;1.15;;;;;;;-145.68;55.65;72676.38;10412241;28;20249;-67
2023/07/21 07:36:51;;;;;;;1.30;1.20;;;;;;;-145.68;54.41;72632.41;10412468;28;20749;-67
2023/07/21 07:41:52;;;;;;;1.48;1.38;;;;;;;-145.68;52.40;72576.47;10411124;28;20867;-66
2023/07/21 07:46:55;;;;;;;3.28;1.23;;;;;;;-145.68;52.31;72568.47;10411946;28;20228;-66
2023/07/21 07:51:56;;;;;;;1.60;1.35;;;;;;;-145.68;50.86;72486.53;10410578;28;20685;-66
2023/07/21 07:56:56;;;;;;;1.30;1.13;;;;;;;-145.68;49.06;72380.63;10411293;28;20205;-67
2023/07/21 08:01:58;;;;;;;1.50;1.40;;;;;;;-145.68;48.34;72344.66;10411582;28;20193;-66
2023/07/21 08:06:58;;;;;;;1.73;1.50;;;;;;;-145.68;48.38;72394.63;10410584;28;20734;-66
2023/07/21 08:11:58;;;;;;;1.98;1.50;;;;;;;-145.68;49.10;72424.59;10410916;28;20189;-66
2023/07/21 08:17:02;;;;;;;5.32;1.67;;;;;;;-145.68;48.29;72368.63;10410376;28;20307;-67
2023/07/21 08:22:05;;;;;;;3.72;1.67;;;;;;;-145.68;47.98;72366.63;10409374;28;20275;-66
2023/07/21 08:27:07;;;;;;;1.63;1.52;;;;;;;-145.68;48.14;72322.69;10410341;28;20555;-66
2023/07/21 08:32:08;;;;;;;1.98;1.30;;;;;;;-145.68;45.60;72264.72;10409922;28;20188;-66
2023/07/21 08:37:08;;;;;;;3.70;1.40;;;;;;;-145.68;44.17;72122.88;10410173;28;20237;-66
2023/07/21 08:42:12;;;;;;;2.22;1.33;;;;;;;-145.68;42.68;71989.00;10409809;28;20287;-66
2023/07/21 08:47:12;;;;;;;2.83;1.70;;;;;;;-145.68;43.21;72150.84;10409669;28;20315;-65
2023/07/21 08:52:13;;;;;;;1.88;1.50;;;;;;;-145.68;42.88;72170.81;10408980;28;20192;-66
2023/07/21 08:57:14;;;;;;;2.47;1.75;;;;;;;-145.68;45.16;72288.72;10409390;28;20201;-66
2023/07/21 09:02:15;;;;;;;2.05;1.85;;;;;;;-145.68;45.30;72280.72;10410014;28;20242;-66
2023/07/21 09:07:15;;;;;;;2.28;1.80;;;;;;;-145.68;46.00;72314.69;10409386;28;20242;-66
2023/07/21 09:12:16;;;;;;;3.40;1.50;;;;;;;-145.68;44.95;72194.78;10409339;28;20204;-65
2023/07/21 09:17:16;;;;;;;5.43;1.60;;;;;;;-145.68;44.63;72304.69;10409344;28;20236;-65
2023/07/21 09:22:23;;;;;;;2.90;1.80;;;;;;;-145.68;44.09;72262.72;10409065;28;20215;-66
2023/07/21 09:27:23;;;;;;;2.75;1.70;;;;;;;-145.68;44.49;72328.69;10408330;28;20212;-65
2023/07/21 09:32:23;;;;;;;3.75;1.60;;;;;;;-145.68;44.37;72332.66;10408259;28;20208;-67
2023/07/21 09:37:26;;;;;;;1.77;1.55;;;;;;;-145.68;44.17;72244.75;10405808;28;20209;-67
2023/07/21 09:42:28;;;;;;;6.28;1.73;;;;;;;-145.68;44.34;72204.78;10412031;28;20204;-66
2023/07/21 09:47:28;;;;;;;3.55;1.70;;;;;;;-145.68;43.35;72198.78;10416226;28;20225;-66
2023/07/21 09:52:35;;;;;;;1.83;1.73;;;;;;;-145.68;41.88;72112.88;10416332;28;20204;-66
2023/07/21 09:57:42;;;;;;;2.58;1.77;;;;;;;-145.68;42.22;72136.84;10413768;28;20307;-65
2023/07/21 10:02:52;;;;;;;3.65;1.70;;;;;;;-145.68;41.60;72074.91;10415673;28;20193;-66
2023/07/21 10:07:54;;;;;;;1.70;1.60;;;;;;;-145.68;40.25;72058.94;10415394;28;20216;-66
2023/07/21 10:12:54;;;;;;;2.70;1.98;;;;;;;-145.68;43.29;72228.75;10415620;28;20189;-66
2023/07/21 10:17:55;;;;;;;1.88;1.55;;;;;;;-145.68;44.82;72232.75;10414976;28;20251;-66
2023/07/21 10:22:56;;;;;;;1.95;1.70;;;;;;;-145.68;50.45;72228.75;10414738;28;20569;-66
2023/07/21 10:28:03;;;;;;;3.25;1.90;;;;;;;-145.68;51.60;72208.78;10414688;28;20232;-67
2023/07/21 10:33:16;;;;;;;3.25;1.80;;;;;;;-145.68;52.29;72184.81;10413090;28;20239;-67
2023/07/21 10:38:19;;;;;;;2.83;2.10;;;;;;;-145.68;49.90;72076.91;10414477;28;20196;-67
2023/07/21 10:43:20;;;;;;;3.53;1.65;;;;;;;-145.68;45.03;72152.84;10414328;28;20197;-65
2023/07/21 10:48:22;;;;;;;2.00;1.60;;;;;;;-145.68;44.02;72156.84;10414267;28;20203;-66
2023/07/21 10:53:23;;;;;;;1.80;1.60;;;;;;;-145.68;45.94;72134.84;10412892;28;20189;-66
2023/07/21 10:58:23;;;;;;;2.60;1.85;;;;;;;-145.68;45.77;72198.78;10414037;28;20755;-67
2023/07/21 11:03:24;;;;;;;5.05;2.63;;;;;;;-145.68;48.18;72324.69;10417245;28;20184;-66
2023/07/21 11:08:26;;;;;;;5.47;2.67;;;;;;;-145.68;53.23;72408.59;10413640;28;20185;-66
2023/07/21 11:13:27;;;;;;;3.40;2.50;;;;;;;-145.68;58.89;72508.50;10412782;28;20246;-67
2023/07/21 11:18:30;;;;;;;2.63;2.25;;;;;;;-145.68;64.07;72536.50;10468601;22;20261;-70
2023/07/21 11:23:31;;;;;;;8.98;3.10;;;;;;;-145.68;67.62;72568.47;10453727;28;20250;-70
2023/07/21 11:28:32;;;;;;;5.55;3.28;;;;;;;-145.68;73.13;72548.47;10457662;28;20203;-70
2023/07/21 11:33:43;;;;;;;5.82;3.78;;;;;;;-145.68;72.37;72586.44;10441800;28;20589;-69
2023/07/21 11:39:01;;;;;;;5.47;3.67;;;;;;;-145.68;78.37;72604.44;10452300;28;20208;-70
2023/07/21 11:44:03;;;;;;;3.65;3.25;;;;;;;-145.68;73.78;72650.41;10450725;28;20219;-69
2023/07/21 11:49:14;;;;;;;5.40;3.78;;;;;;;-145.68;76.80;72576.47;10451964;28;20730;-70
2023/07/21 11:54:43;;;;;;;8.05;3.53;;;;;;;-145.68;79.97;72548.47;10452423;28;20216;-68
2023/07/21 11:59:44;;;;;;;8.23;3.90;;;;;;;-145.68;80.29;72520.50;10446719;28;20214;-69
2023/07/21 12:04:44;;;;;;;3.72;3.28;;;;;;;-145.68;71.00;72542.50;10450318;28;20269;-69
2023/07/21 12:09:45;;;;;;;3.65;3.25;;;;;;;-145.68;69.56;72524.50;10452416;28;20192;-69
2023/07/21 12:14:46;;;;;;;4.68;3.22;;;;;;;-145.68;69.18;72372.63;10451701;28;20322;-69
2023/07/21 12:19:47;;;;;;;3.42;3.13;;;;;;;-145.68;60.83;72302.69;10452036;28;20670;-68
2023/07/21 12:24:47;;;;;;;4.10;2.80;;;;;;;-145.68;56.49;72172.81;10451428;28;20228;-68
2023/07/21 12:29:47;;;;;;;4.38;3.10;;;;;;;-145.68;51.64;72072.91;10451365;28;20204;-68
2023/07/21 12:34:48;;;;;;;3.72;3.35;;;;;;;-145.68;51.58;72152.84;10442271;28;20222;-67
2023/07/21 12:39:49;;;;;;;4.38;2.50;;;;;;;-145.68;48.24;72168.81;10418864;28;20187;-68
2023/07/21 12:44:50;;;;;;;3.70;2.25;;;;;;;-145.68;49.76;72288.72;10448277;28;20298;-68
2023/07/21 12:49:50;;;;;;;3.13;2.40;;;;;;;-145.68;50.28;72280.72;10447254;28;20203;-68
2023/07/21 12:54:50;;;;;;;4.60;3.10;;;;;;;-145.68;52.95;72400.59;10448372;28;20212;-68
2023/07/21 12:59:51;;;;;;;3.42;3.13;;;;;;;-145.68;54.17;72422.59;10430310;28;20279;-68
2023/07/21 13:04:51;;;;;;;2.88;2.60;;;;;;;-145.68;54.38;72410.59;10447024;28;20226;-68
2023/07/21 13:09:52;;;;;;;3.42;2.75;;;;;;;-145.68;53.13;72376.63;10446438;28;20196;-68
2023/07/21 13:14:52;;;;;;;5.07;2.97;;;;;;;-145.68;54.74;72396.63;10447884;28;20612;-67
2023/07/21 13:19:53;;;;;;;3.47;2.78;;;;;;;-145.68;56.02;72424.59;10455150;28;20321;-68
2023/07/21 13:24:53;;;;;;;2.97;2.65;;;;;;;-145.68;54.66;72408.59;10455755;28;20220;-68
2023/07/21 13:29:53;;;;;;;5.97;2.50;;;;;;;-145.68;53.41;72372.63;10455967;28;20195;-68
2023/07/21 13:34:54;;;;;;;4.07;2.67;;;;;;;-145.68;54.39;72420.59;10454613;28;20207;-68
2023/07/21 13:39:54;;;;;;;3.40;2.40;;;;;;;-145.68;52.53;72414.59;10453981;28;20191;-68
2023/07/21 13:44:54;;;;;;;4.68;2.72;;;;;;;-145.68;52.87;72360.66;10452704;28;20231;-68
2023/07/21 13:49:55;;;;;;;4.75;3.38;;;;;;;-145.68;50.46;72290.72;10443746;28;20200;-68
2023/07/21 13:54:55;;;;;;;2.50;2.30;;;;;;;-145.68;49.00;72188.81;10454730;28;20208;-68
2023/07/21 13:59:55;;;;;;;5.65;2.60;;;;;;;-145.68;46.37;72092.91;10453095;28;20580;-68
2023/07/21 14:04:56;;;;;;;3.83;2.50;;;;;;;-145.68;46.81;72160.81;10454598;28;20620;-68
2023/07/21 14:09:57;;;;;;;4.63;2.58;;;;;;;-145.68;48.40;72144.84;10452988;28;20568;-67
2023/07/21 14:14:58;;;;;;;4.85;2.30;;;;;;;-145.68;44.59;71969.00;10453116;28;20251;-68
2023/07/21 14:19:59;;;;;;;2.63;2.42;;;;;;;-145.68;42.07;71755.22;10453729;28;20211;-67
2023/07/21 14:25:00;;;;;;;4.68;2.63;;;;;;;-145.68;42.01;71967.00;10453942;28;20231;-68
2023/07/21 14:30:00;;;;;;;2.38;2.17;;;;;;;-145.68;44.95;71993.00;10453267;28;20199;-68
2023/07/21 14:35:01;;;;;;;4.90;2.15;;;;;;;-145.68;44.44;71973.00;10444575;28;20219;-67
2023/07/21 14:40:04;;;;;;;5.20;2.10;;;;;;;-145.68;45.88;72082.91;10416544;28;20258;-67
2023/07/21 14:45:07;;;;;;;2.17;2.00;;;;;;;-145.68;44.98;72114.88;10451481;28;20220;-67
2023/07/21 14:50:08;;;;;;;4.38;2.17;;;;;;;-145.68;46.06;72172.81;10452642;28;20737;-67
2023/07/21 14:55:11;;;;;;;3.72;2.22;;;;;;;-145.68;45.25;72098.88;10452878;28;20208;-67
2023/07/21 15:00:20;;;;;;;4.22;2.00;;;;;;;-145.68;44.13;71973.00;10454370;28;20272;-67
2023/07/21 15:05:20;;;;;;;4.05;2.30;;;;;;;-145.68;43.23;71887.09;10454279;28;20672;-67
2023/07/21 15:10:21;;;;;;;2.13;1.85;;;;;;;-145.68;39.39;71597.41;10454338;28;20246;-68
2023/07/21 15:15:21;;;;;;;3.08;2.17;;;;;;;-145.68;35.26;71327.69;10454126;28;20293;-68
2023/07/21 15:20:21;;;;;;;1.83;1.67;;;;;;;-145.68;33.43;71227.81;10453279;28;20232;-68
2023/07/21 15:25:22;;;;;;;6.25;3.08;;;;;;;-145.68;37.39;71589.41;10453639;28;20593;-68
2023/07/21 15:30:22;;;;;;;4.15;2.00;;;;;;;-145.68;38.23;71609.38;10454167;28;20192;-68
2023/07/21 15:35:23;;;;;;;3.72;1.83;;;;;;;-145.68;37.16;71471.53;10453564;28;20215;-68
2023/07/21 15:40:23;;;;;;;4.57;2.00;;;;;;;-145.68;33.78;71147.91;10452933;28;20192;-69
2023/07/21 15:45:23;;;;;;;63.42;14.23;;;;;;;-145.68;33.08;71070.00;10453190;28;20572;-71
2023/07/21 15:50:24;;;;;;;3.73;1.93;;;;;;;-145.68;30.85;70930.19;10451739;28;20796;-71
2023/07/21 15:55:24;;;;;;;6.88;2.85;;;;;;;-145.68;31.57;70954.16;10453162;28;20821;-70
2023/07/21 16:00:24;;;;;;;3.93;1.87;;;;;;;-145.68;33.36;71189.84;10451349;28;20203;-70
2023/07/21 16:05:25;;;;;;;3.67;1.83;;;;;;;-145.68;32.16;71016.06;10452170;28;20473;-70
2023/07/21 16:10:26;;;;;;;2.70;1.88;;;;;;;-145.68;33.28;71207.84;10450663;28;20426;-70
2023/07/21 16:15:26;;;;;;;2.60;1.92;;;;;;;-145.68;33.46;71187.84;10451854;28;20304;-70
2023/07/21 16:20:26;;;;;;;1.80;1.70;;;;;;;-145.68;36.30;71421.59;10451989;28;20191;-70
2023/07/21 16:25:27;;;;;;;5.80;1.80;;;;;;;-145.68;38.98;71721.25;10452404;28;20219;-70
2023/07/21 16:30:28;;;;;;;3.90;1.80;;;;;;;-145.68;38.89;71677.31;10451574;28;20441;-70
2023/07/21 16:35:28;;;;;;;1.83;1.67;;;;;;;-145.68;39.79;71735.25;10452760;28;20681;-70
2023/07/21 16:40:28;;;;;;;4.50;2.20;;;;;;;-145.68;41.56;71891.09;10451987;28;20596;-70
2023/07/21 16:45:29;;;;;;;2.97;2.30;;;;;;;-145.68;42.82;71961.03;10452536;28;20230;-70
2023/07/21 16:50:30;;;;;;;3.65;2.05;;;;;;;-145.68;46.04;72152.84;10451402;28;20199;-70
2023/07/21 16:55:31;;;;;;;2.35;2.08;;;;;;;-145.68;45.19;72080.91;10452192;28;20212;-69
2023/07/21 17:00:31;;;;;;;4.72;2.28;;;;;;;-145.68;45.86;72152.84;10451810;28;20658;-69
2023/07/21 17:05:34;;;;;;;3.92;2.50;;;;;;;-145.68;46.63;72192.78;10452084;28;20251;-69
2023/07/21 17:10:35;;;;;;;4.25;2.30;;;;;;;-145.68;46.95;72176.81;10451885;28;20196;-69
2023/07/21 17:15:35;;;;;;;2.85;2.17;;;;;;;-145.68;47.64;72208.78;10450730;22;20247;-67
2023/07/21 17:20:35;;;;;;;2.20;2.00;;;;;;;-145.68;49.47;72312.69;10368654;28;20753;-66
2023/07/21 17:25:36;;;;;;;3.40;1.90;;;;;;;-145.68;49.10;72282.72;10369509;28;20244;-66
2023/07/21 17:30:36;;;;;;;4.97;2.38;;;;;;;-145.68;49.35;72284.72;10368875;28;20227;-66
2023/07/21 17:35:41;;;;;;;3.50;2.22;;;;;;;-145.68;49.91;72318.69;10368985;28;20255;-66
2023/07/21 17:40:41;;;;;;;4.05;3.03;;;;;;;-145.68;50.37;72368.63;10368946;28;20263;-66
2023/07/21 17:45:45;;;;;;;3.55;2.40;;;;;;;-145.68;50.46;72364.63;10368708;28;20240;-66
2023/07/21 17:50:45;;;;;;;3.08;2.42;;;;;;;-145.68;52.45;72438.56;10368521;28;20616;-66
2023/07/21 17:55:46;;;;;;;2.92;2.25;;;;;;;-145.68;53.96;72502.53;10368672;28;20220;-66
2023/07/21 18:00:47;;;;;;;4.60;2.20;;;;;;;-145.68;54.69;72500.53;10368241;28;20200;-66
2023/07/21 18:05:48;;;;;;;2.35;2.15;;;;;;;-145.68;54.51;72490.53;10374475;28;20308;-67
2023/07/21 18:10:48;;;;;;;2.72;2.45;;;;;;;-145.68;54.56;72498.53;10375541;28;20216;-67
2023/07/21 18:15:48;;;;;;;3.17;2.47;;;;;;;-145.68;55.01;72508.50;10375232;28;20312;-66
2023/07/21 18:20:59;;;;;;;3.78;2.42;;;;;;;-145.68;55.66;72578.47;10394712;28;20234;-66
2023/07/21 18:26:00;;;;;;;2.55;2.22;;;;;;;-145.68;57.01;72648.41;10390441;28;20221;-66
2023/07/21 18:31:04;;;;;;;4.05;1.80;;;;;;;-145.68;56.46;72612.44;10382015;28;20610;-66
2023/07/21 18:36:12;;;;;;;3.05;2.67;;;;;;;-145.68;56.36;72600.44;10374458;28;20347;-67
2023/07/21 18:41:13;;;;;;;4.00;3.53;;;;;;;-145.68;58.46;72606.44;10374238;28;20532;-67
2023/07/21 18:46:14;;;;;;;3.78;2.53;;;;;;;-145.68;62.13;72660.38;10374404;28;20225;-67
2023/07/21 18:51:14;;;;;;;4.85;2.63;;;;;;;-145.68;62.99;72712.34;10373830;28;20694;-67
2023/07/21 18:56:15;;;;;;;4.57;2.75;;;;;;;-145.68;66.38;72786.28;10373717;28;20213;-65
2023/07/21 19:01:16;;;;;;;4.55;2.95;;;;;;;-145.68;71.35;72840.25;10373599;28;20194;-65
2023/07/21 19:06:16;;;;;;;5.57;3.80;;;;;;;-145.68;76.99;72944.16;10373094;28;20300;-65
2023/07/21 19:11:19;;;;;;;7.20;3.83;;;;;;;-145.68;87.10;73004.13;10373397;28;20292;-67
2023/07/21 19:16:22;;;;;;;10.10;4.60;;;;;;;-145.68;100.00;73046.09;10371627;28;20706;-68
2023/07/21 19:21:23;;;;;;;6.32;4.93;;;;;;;-145.68;100.00;73098.06;10372790;28;20198;-67
2023/07/21 19:26:23;;;;;;;5.32;4.35;;;;;;;-145.68;100.00;73176.00;10372376;28;20224;-67
2023/07/21 19:31:23;;;;;;;5.55;4.90;;;;;;;-145.68;100.00;73227.97;10372043;28;20696;-67
2023/07/21 19:36:24;;;;;;;6.00;4.50;;;;;;;-145.68;100.00;73227.97;10372385;28;20213;-67
2023/07/21 19:41:24;;;;;;;7.40;4.70;;;;;;;-145.68;100.00;73245.97;10371549;28;20817;-67
2023/07/21 19:46:25;;;;;;;6.53;4.40;;;;;;;-145.68;100.00;73257.94;10371952;28;20695;-68
2023/07/21 19:51:26;;;;;;;5.47;4.68;;;;;;;-145.68;100.00;73279.94;10371462;28;20203;-67
2023/07/21 19:56:27;;;;;;;5.40;4.90;;;;;;;-145.68;100.00;73295.94;10371338;28;20208;-67
2023/07/21 20:01:29;;;;;;;6.47;5.07;;;;;;;-145.68;100.00;73285.94;10371485;28;20200;-67
2023/07/21 20:06:30;;;;;;;6.32;5.63;;;;;;;-145.68;100.00;73299.91;10370665;28;20730;-67
2023/07/21 20:11:34;;;;;;;6.70;5.18;;;;;;;-145.68;100.00;73311.91;10373612;28;20272;-67
2023/07/21 20:16:34;;;;;;;7.90;6.28;;;;;;;-145.68;100.00;73325.91;10407992;28;20695;-67
2023/07/21 20:21:34;;;;;;;7.95;6.93;;;;;;;-145.68;100.00;73361.88;10411531;28;20188;-67
2023/07/21 20:26:35;;;;;;;9.93;6.47;;;;;;;-145.68;100.00;73355.88;10411124;28;20215;-67
2023/07/21 20:31:35;;;;;;;7.53;6.75;;;;;;;-145.68;100.00;73359.88;10410876;28;20258;-67
2023/07/21 20:36:36;;;;;;;7.78;5.80;;;;;;;-145.68;100.00;73363.88;10411170;28;20690;-67
2023/07/21 20:41:36;;;;;;;7.38;6.65;;;;;;;-145.68;100.00;73365.88;10410579;28;20200;-67
2023/07/21 20:46:36;;;;;;;6.85;6.15;;;;;;;-145.68;100.00;73359.88;10410851;28;20307;-67
2023/07/21 20:51:37;;;;;;;7.57;6.78;;;;;;;-145.68;100.00;73369.88;10410450;28;20200;-67
2023/07/21 20:56:37;;;;;;;9.55;7.53;;;;;;;-145.68;100.00;73391.84;10410375;28;20220;-67
2023/07/21 21:01:38;;;;;;;7.18;6.00;;;;;;;-145.68;100.00;73387.88;10410680;28;20204;-67
2023/07/21 21:06:39;;;;;;;8.77;6.93;;;;;;;-145.68;100.00;73411.84;10409644;28;20220;-67
2023/07/21 21:11:40;;;;;;;8.40;7.03;;;;;;;-145.68;100.00;73403.84;10412087;28;20224;-68
2023/07/21 21:16:40;;;;;;;8.75;7.28;;;;;;;-145.68;100.00;73405.84;10416137;28;20314;-67
2023/07/21 21:21:40;;;;;;;8.43;6.60;;;;;;;-145.68;100.00;73419.84;10413709;28;20197;-67
2023/07/21 21:26:41;;;;;;;7.97;7.18;;;;;;;-145.68;100.00;73431.84;10410545;28;20224;-68
2023/07/21 21:31:41;;;;;;;8.43;7.10;;;;;;;-145.68;100.00;73433.84;10410607;28;20203;-68
2023/07/21 21:36:41;;;;;;;8.35;6.53;;;;;;;-145.68;100.00;73443.84;10410732;28;20323;-68
2023/07/21 21:41:42;;;;;;;8.20;7.03;;;;;;;-145.68;100.00;73447.81;10418221;28;20196;-67
2023/07/21 21:46:42;;;;;;;7.97;7.15;;;;;;;-145.68;100.00;73479.81;10418004;28;20220;-68
2023/07/21 21:51:43;;;;;;;9.23;6.63;;;;;;;-145.68;100.00;73497.78;10417998;28;20560;-68
2023/07/21 21:56:43;;;;;;;8.20;7.35;;;;;;;-145.68;100.00;73509.78;10417590;28;20208;-68
2023/07/21 22:01:43;;;;;;;8.35;7.13;;;;;;;-145.68;100.00;73523.78;10417713;28;20200;-69
2023/07/21 22:06:44;;;;;;;9.30;7.10;;;;;;;-145.68;100.00;73537.78;10417192;28;20224;-68
2023/07/21 22:11:44;;;;;;;8.23;6.50;;;;;;;-145.68;100.00;73535.78;10417330;28;20663;-68
2023/07/21 22:16:45;;;;;;;12.02;7.00;;;;;;;-145.68;100.00;73527.78;10416817;28;20232;-67
2023/07/21 22:21:45;;;;;;;8.18;7.22;;;;;;;-145.68;100.00;73535.78;10416683;28;20544;-68
2023/07/21 22:26:46;;;;;;;9.50;7.10;;;;;;;-145.68;100.00;73537.78;10416389;28;20220;-68
2023/07/21 22:31:46;;;;;;;8.70;6.68;;;;;;;-145.68;100.00;73547.75;10416437;28;20278;-68
2023/07/21 22:36:47;;;;;;;9.57;7.03;;;;;;;-145.68;100.00;73553.75;10416083;28;20833;-68
2023/07/21 22:41:47;;;;;;;10.40;7.13;;;;;;;-145.68;100.00;73567.75;10416278;28;20238;-67
2023/07/21 22:46:47;;;;;;;7.57;6.88;;;;;;;-145.68;100.00;73561.75;10415462;28;20223;-67